createdAt,value
2017-04-23T00:00:42.263Z,1012.58
2017-04-23T00:01:52.228Z,1012.56
2017-04-23T00:03:02.813Z,1012.53
2017-04-23T00:04:12.779Z,1012.57
2017-04-23T00:05:22.751Z,1012.5
2017-04-23T00:06:33.029Z,1012.58
2017-04-23T00:07:43.302Z,1012.55
2017-04-23T00:08:53.515Z,1012.59
2017-04-23T00:10:03.490Z,1012.56
2017-04-23T00:11:13.769Z,1012.53
2017-04-23T00:12:24.051Z,1012.53
2017-04-23T00:13:34.339Z,1012.53
2017-04-23T00:14:44.883Z,1012.51
2017-04-23T00:15:55.163Z,1012.53
2017-04-23T00:17:05.437Z,1012.52
2017-04-23T00:18:15.109Z,1012.49
2017-04-23T00:19:25.432Z,1012.51
2017-04-23T00:20:36.027Z,1012.49
2017-04-23T00:21:46.301Z,1012.52
2017-04-23T00:22:56.591Z,1012.54
2017-04-23T00:24:06.302Z,1012.53
2017-04-23T00:25:15.961Z,1012.58
2017-04-23T00:26:26.501Z,1012.52
2017-04-23T00:27:36.460Z,1012.54
2017-04-23T00:28:46.424Z,1012.56
2017-04-23T00:29:56.390Z,1012.56
2017-04-23T00:31:06.353Z,1012.54
2017-04-23T00:32:16.572Z,1012.48
2017-04-23T00:33:26.849Z,1012.49
2017-04-23T00:34:37.127Z,1012.56
2017-04-23T00:35:47.401Z,1012.58
2017-04-23T00:36:57.679Z,1012.54
2017-04-23T00:38:07.572Z,1012.5
2017-04-23T00:39:17.547Z,1012.53
2017-04-23T00:40:27.203Z,1012.57
2017-04-23T00:41:37.170Z,1012.51
2017-04-23T00:42:47.441Z,1012.48
2017-04-23T00:43:57.977Z,1012.49
2017-04-23T00:45:07.941Z,1012.47
2017-04-23T00:46:17.907Z,1012.5
2017-04-23T00:47:27.869Z,1012.51
2017-04-23T00:48:38.149Z,1012.48
2017-04-23T00:49:48.673Z,1012.47
2017-04-23T00:50:58.958Z,1012.46
2017-04-23T00:52:08.921Z,1012.48
2017-04-23T00:53:19.248Z,1012.43
2017-04-23T00:54:29.241Z,1012.53
2017-04-23T00:55:39.456Z,1012.5
2017-04-23T00:56:49.742Z,1012.45
2017-04-23T00:58:00.022Z,1012.47
2017-04-23T00:59:10.317Z,1012.52
2017-04-23T01:00:20.604Z,1012.55
2017-04-23T01:01:31.186Z,1012.54
2017-04-23T01:02:41.148Z,1012.53
2017-04-23T01:03:51.112Z,1012.58
2017-04-23T01:05:01.388Z,1012.58
2017-04-23T01:06:11.351Z,1012.6
2017-04-23T01:07:21.884Z,1012.6
2017-04-23T01:08:31.848Z,1012.61
2017-04-23T01:09:42.135Z,1012.61
2017-04-23T01:10:52.096Z,1012.65
2017-04-23T01:12:02.380Z,1012.62
2017-04-23T01:13:12.926Z,1012.63
2017-04-23T01:14:22.904Z,1012.63
2017-04-23T01:15:32.868Z,1012.62
2017-04-23T01:16:42.832Z,1012.6
2017-04-23T01:17:53.112Z,1012.63
2017-04-23T01:19:03.334Z,1012.63
2017-04-23T01:20:13.620Z,1012.63
2017-04-23T01:21:23.894Z,1012.62
2017-04-23T01:22:34.166Z,1012.66
2017-04-23T01:23:44.452Z,1012.68
2017-04-23T01:24:54.359Z,1012.65
2017-04-23T01:26:04.646Z,1012.64
2017-04-23T01:27:14.943Z,1012.73
2017-04-23T01:28:24.912Z,1012.67
2017-04-23T01:29:35.200Z,1012.67
2017-04-23T01:30:45.720Z,1012.68
2017-04-23T01:31:56.007Z,1012.7
2017-04-23T01:33:05.969Z,1012.7
2017-04-23T01:34:15.927Z,1012.7
2017-04-23T01:35:26.200Z,1012.75
2017-04-23T01:36:36.156Z,1012.73
2017-04-23T01:37:46.466Z,1012.69
2017-04-23T01:38:56.749Z,1012.73
2017-04-23T01:40:06.712Z,1012.7
2017-04-23T01:41:16.989Z,1012.67
2017-04-23T01:42:27.198Z,1012.72
2017-04-23T01:43:37.472Z,1012.71
2017-04-23T01:44:47.750Z,1012.77
2017-04-23T01:45:58.026Z,1012.78
2017-04-23T01:47:08.401Z,1012.72
2017-04-23T01:48:18.924Z,1012.75
2017-04-23T01:49:29.209Z,1012.75
2017-04-23T01:50:39.489Z,1012.75
2017-04-23T01:51:49.768Z,1012.79
2017-04-23T01:52:59.430Z,1012.76
2017-04-23T01:54:09.952Z,1012.82
2017-04-23T01:55:19.917Z,1012.77
2017-04-23T01:56:30.200Z,1012.67
2017-04-23T01:57:40.162Z,1012.75
2017-04-23T01:58:50.131Z,1012.73
2017-04-23T02:00:00.364Z,1012.78
2017-04-23T02:01:10.333Z,1012.73
2017-04-23T02:02:20.298Z,1012.74
2017-04-23T02:03:30.269Z,1012.76
2017-04-23T02:04:40.552Z,1012.74
2017-04-23T02:05:51.075Z,1012.77
2017-04-23T02:07:00.727Z,1012.77
2017-04-23T02:08:10.703Z,1012.73
2017-04-23T02:09:20.685Z,1012.76
2017-04-23T02:10:30.963Z,1012.81
2017-04-23T02:11:41.502Z,1012.8
2017-04-23T02:12:51.776Z,1012.75
2017-04-23T02:14:02.050Z,1012.81
2017-04-23T02:15:12.327Z,1012.75
2017-04-23T02:16:22.615Z,1012.78
2017-04-23T02:17:33.140Z,1012.79
2017-04-23T02:18:43.419Z,1012.74
2017-04-23T02:19:53.382Z,1012.74
2017-04-23T02:21:03.370Z,1012.83
2017-04-23T02:22:13.354Z,1012.81
2017-04-23T02:23:23.615Z,1012.77
2017-04-23T02:24:33.596Z,1012.75
2017-04-23T02:25:43.879Z,1012.81
2017-04-23T02:26:54.159Z,1012.82
2017-04-23T02:28:04.445Z,1012.79
2017-04-23T02:29:15.034Z,1012.8
2017-04-23T02:30:25.006Z,1012.84
2017-04-23T02:31:34.983Z,1012.87
2017-04-23T02:32:44.940Z,1012.82
2017-04-23T02:33:55.249Z,1012.86
2017-04-23T02:35:05.468Z,1012.86
2017-04-23T02:36:15.433Z,1012.95
2017-04-23T02:37:25.712Z,1012.86
2017-04-23T02:38:35.671Z,1012.83
2017-04-23T02:39:45.651Z,1012.87
2017-04-23T02:40:56.184Z,1012.88
2017-04-23T02:42:06.461Z,1012.87
2017-04-23T02:43:16.518Z,1012.88
2017-04-23T02:44:26.797Z,1012.9
2017-04-23T02:45:36.779Z,1012.91
2017-04-23T02:46:47.322Z,1012.88
2017-04-23T02:47:57.602Z,1012.91
2017-04-23T02:49:07.261Z,1012.92
2017-04-23T02:50:17.223Z,1012.86
2017-04-23T02:51:27.211Z,1012.89
2017-04-23T02:52:37.795Z,1012.9
2017-04-23T02:53:48.088Z,1012.89
2017-04-23T02:54:58.367Z,1012.9
2017-04-23T02:56:08.020Z,1012.89
2017-04-23T02:57:18.303Z,1012.95
2017-04-23T02:58:28.517Z,1012.93
2017-04-23T02:59:38.489Z,1012.95
2017-04-23T03:00:48.769Z,1012.94
2017-04-23T03:01:58.730Z,1012.91
2017-04-23T03:03:08.399Z,1012.97
2017-04-23T03:04:18.626Z,1012.93
2017-04-23T03:05:28.906Z,1012.92
2017-04-23T03:06:38.881Z,1012.97
2017-04-23T03:07:49.162Z,1012.99
2017-04-23T03:08:59.167Z,1012.95
2017-04-23T03:10:09.745Z,1012.96
2017-04-23T03:11:19.708Z,1012.97
2017-04-23T03:12:29.986Z,1012.94
2017-04-23T03:13:40.261Z,1012.91
2017-04-23T03:14:50.541Z,1012.91
2017-04-23T03:16:01.081Z,1012.89
2017-04-23T03:17:11.063Z,1012.88
2017-04-23T03:18:21.342Z,1012.88
2017-04-23T03:19:31.317Z,1012.91
2017-04-23T03:20:41.616Z,1012.91
2017-04-23T03:21:52.141Z,1012.93
2017-04-23T03:23:02.116Z,1012.88
2017-04-23T03:24:12.386Z,1012.88
2017-04-23T03:25:22.358Z,1012.9
2017-04-23T03:26:32.641Z,1012.96
2017-04-23T03:27:43.184Z,1012.91
2017-04-23T03:28:53.467Z,1013.02
2017-04-23T03:30:03.744Z,1013.02
2017-04-23T03:31:13.711Z,1012.99
2017-04-23T03:32:23.695Z,1012.97
2017-04-23T03:33:34.220Z,1013.03
2017-04-23T03:34:44.193Z,1012.99
2017-04-23T03:35:54.472Z,1013.02
2017-04-23T03:37:04.432Z,1013.01
2017-04-23T03:38:14.409Z,1013.06
2017-04-23T03:39:24.947Z,1013.06
2017-04-23T03:40:34.913Z,1013.06
2017-04-23T03:41:44.877Z,1013.1
2017-04-23T03:42:55.165Z,1013.07
2017-04-23T03:44:05.137Z,1013.12
2017-04-23T03:45:15.358Z,1013.1
2017-04-23T03:46:25.639Z,1013.1
2017-04-23T03:47:35.607Z,1013.06
2017-04-23T03:48:45.577Z,1013.1
2017-04-23T03:49:55.863Z,1013.08
2017-04-23T03:51:06.457Z,1013.1
2017-04-23T03:52:16.729Z,1013.13
2017-04-23T03:53:27.014Z,1013.14
2017-04-23T03:54:37.297Z,1013.11
2017-04-23T03:55:46.948Z,1013.1
2017-04-23T03:56:57.166Z,1013.14
2017-04-23T03:58:07.136Z,1013.16
2017-04-23T03:59:17.099Z,1013.1
2017-04-23T04:00:27.373Z,1013.1
2017-04-23T04:01:37.659Z,1013.16
2017-04-23T04:02:48.179Z,1013.13
2017-04-23T04:03:58.464Z,1013.12
2017-04-23T04:05:08.756Z,1013.16
2017-04-23T04:06:19.029Z,1013.18
2017-04-23T04:07:29.301Z,1013.11
2017-04-23T04:08:39.516Z,1013.2
2017-04-23T04:09:49.491Z,1013.19
2017-04-23T04:10:59.775Z,1013.18
2017-04-23T04:12:09.732Z,1013.18
2017-04-23T04:13:20.001Z,1013.2
2017-04-23T04:14:30.240Z,1013.23
2017-04-23T04:15:40.199Z,1013.14
2017-04-23T04:16:50.177Z,1013.22
2017-04-23T04:18:00.446Z,1013.22
2017-04-23T04:19:10.724Z,1013.21
2017-04-23T04:20:21.254Z,1013.24
2017-04-23T04:21:31.220Z,1013.24
2017-04-23T04:22:41.182Z,1013.23
2017-04-23T04:23:51.138Z,1013.26
2017-04-23T04:25:01.109Z,1013.27
2017-04-23T04:26:11.065Z,1013.24
2017-04-23T04:27:20.947Z,1013.21
2017-04-23T04:28:31.221Z,1013.21
2017-04-23T04:29:41.187Z,1013.22
2017-04-23T04:30:51.472Z,1013.21
2017-04-23T04:32:02.055Z,1013.21
2017-04-23T04:33:12.326Z,1013.24
2017-04-23T04:34:22.297Z,1013.24
2017-04-23T04:35:31.949Z,1013.25
2017-04-23T04:36:41.935Z,1013.23
2017-04-23T04:37:52.468Z,1013.29
2017-04-23T04:39:02.744Z,1013.34
2017-04-23T04:40:12.400Z,1013.33
2017-04-23T04:41:22.697Z,1013.31
2017-04-23T04:42:32.680Z,1013.27
2017-04-23T04:43:43.232Z,1013.31
2017-04-23T04:44:53.513Z,1013.38
2017-04-23T04:46:03.483Z,1013.42
2017-04-23T04:47:13.768Z,1013.39
2017-04-23T04:48:23.725Z,1013.49
2017-04-23T04:49:34.258Z,1013.45
2017-04-23T04:50:44.552Z,1013.47
2017-04-23T04:51:54.820Z,1013.51
2017-04-23T04:53:04.791Z,1013.52
2017-04-23T04:54:15.073Z,1013.49
2017-04-23T04:55:25.296Z,1013.56
2017-04-23T04:56:35.581Z,1013.54
2017-04-23T04:57:45.550Z,1013.56
2017-04-23T04:58:55.833Z,1013.59
2017-04-23T05:00:06.108Z,1013.57
2017-04-23T05:01:16.321Z,1013.62
2017-04-23T05:02:26.589Z,1013.61
2017-04-23T05:03:36.872Z,1013.62
2017-04-23T05:04:47.164Z,1013.69
2017-04-23T05:05:57.455Z,1013.66
2017-04-23T05:07:07.969Z,1013.65
2017-04-23T05:08:18.256Z,1013.72
2017-04-23T05:09:28.211Z,1013.65
2017-04-23T05:10:38.492Z,1013.66
2017-04-23T05:11:48.773Z,1013.68
2017-04-23T05:12:59.305Z,1013.67
2017-04-23T05:14:09.268Z,1013.65
2017-04-23T05:15:19.549Z,1013.69
2017-04-23T05:16:29.515Z,1013.72
2017-04-23T05:17:39.496Z,1013.7
2017-04-23T05:18:49.717Z,1013.67
2017-04-23T05:20:00.003Z,1013.69
2017-04-23T05:21:10.278Z,1013.7
2017-04-23T05:22:20.556Z,1013.74
2017-04-23T05:23:30.526Z,1013.72
2017-04-23T05:24:40.746Z,1013.78
2017-04-23T05:25:51.019Z,1013.8
2017-04-23T05:27:00.991Z,1013.82
2017-04-23T05:28:11.290Z,1013.74
2017-04-23T05:29:21.558Z,1013.78
2017-04-23T05:30:31.466Z,1013.77
2017-04-23T05:31:41.114Z,1013.8
2017-04-23T05:32:51.075Z,1013.78
2017-04-23T05:34:01.351Z,1013.8
2017-04-23T05:35:11.005Z,1013.79
2017-04-23T05:36:21.541Z,1013.85
2017-04-23T05:37:31.534Z,1013.82
2017-04-23T05:38:41.815Z,1013.82
2017-04-23T05:39:52.091Z,1013.82
2017-04-23T05:41:02.055Z,1013.86
2017-04-23T05:42:12.588Z,1013.88
2017-04-23T05:43:22.867Z,1013.87
2017-04-23T05:44:33.157Z,1013.87
2017-04-23T05:45:43.448Z,1013.85
2017-04-23T05:46:53.732Z,1013.86
2017-04-23T05:48:03.955Z,1013.88
2017-04-23T05:49:14.248Z,1013.96
2017-04-23T05:50:24.217Z,1013.93
2017-04-23T05:51:34.193Z,1013.93
2017-04-23T05:52:44.163Z,1013.9
2017-04-23T05:53:54.069Z,1013.96
2017-04-23T05:55:04.348Z,1013.95
2017-04-23T05:56:14.315Z,1013.92
2017-04-23T05:57:24.290Z,1013.93
2017-04-23T05:58:34.264Z,1013.98
2017-04-23T05:59:44.487Z,1013.96
2017-04-23T06:00:54.766Z,1013.9
2017-04-23T06:02:04.748Z,1013.93
2017-04-23T06:03:15.034Z,1013.9
2017-04-23T06:04:25.004Z,1013.92
2017-04-23T06:05:34.902Z,1013.93
2017-04-23T06:06:44.863Z,1013.88
2017-04-23T06:07:55.143Z,1013.94
2017-04-23T06:09:05.429Z,1013.9
2017-04-23T06:10:15.416Z,1013.9
2017-04-23T06:11:26.010Z,1013.88
2017-04-23T06:12:36.282Z,1013.9
2017-04-23T06:13:46.566Z,1013.86
2017-04-23T06:14:56.853Z,1013.86
2017-04-23T06:16:07.135Z,1013.86
2017-04-23T06:17:17.674Z,1013.87
2017-04-23T06:18:27.968Z,1013.9
2017-04-23T06:19:38.250Z,1013.9
2017-04-23T06:20:48.211Z,1013.93
2017-04-23T06:21:58.200Z,1013.91
2017-04-23T06:23:08.738Z,1013.92
2017-04-23T06:24:19.015Z,1013.93
2017-04-23T06:25:28.994Z,1013.94
2017-04-23T06:26:38.960Z,1013.98
2017-04-23T06:27:49.271Z,1014.01
2017-04-23T06:28:59.801Z,1013.99
2017-04-23T06:30:09.782Z,1013.96
2017-04-23T06:31:20.062Z,1013.96
2017-04-23T06:32:30.355Z,1013.96
2017-04-23T06:33:40.336Z,1013.95
2017-04-23T06:34:50.882Z,1014
2017-04-23T06:36:01.169Z,1014
2017-04-23T06:37:11.445Z,1013.99
2017-04-23T06:38:21.722Z,1014.02
2017-04-23T06:39:32.029Z,1014.01
2017-04-23T06:40:42.573Z,1014.01
2017-04-23T06:41:52.853Z,1014
2017-04-23T06:43:03.131Z,1014.04
2017-04-23T06:44:13.415Z,1014.07
2017-04-23T06:45:23.715Z,1014.09
2017-04-23T06:46:33.925Z,1014.11
2017-04-23T06:47:43.888Z,1014.12
2017-04-23T06:48:53.875Z,1014.15
2017-04-23T06:50:03.229Z,1014.07
2017-04-23T06:51:13.202Z,1014.18
2017-04-23T06:52:23.723Z,1014.19
2017-04-23T06:53:34.017Z,1014.17
2017-04-23T06:54:44.294Z,1014.19
2017-04-23T06:55:54.272Z,1014.17
2017-04-23T06:57:04.549Z,1014.18
2017-04-23T06:58:14.451Z,1014.22
2017-04-23T06:59:24.417Z,1014.19
2017-04-23T07:00:34.713Z,1014.16
2017-04-23T07:01:45.016Z,1014.16
2017-04-23T07:02:55.298Z,1014.18
2017-04-23T07:04:05.513Z,1014.21
2017-04-23T07:05:15.516Z,1014.19
2017-04-23T07:06:25.821Z,1014.19
2017-04-23T07:07:36.113Z,1014.21
2017-04-23T07:08:46.399Z,1014.25
2017-04-23T07:09:57.000Z,1014.25
2017-04-23T07:11:07.288Z,1014.23
2017-04-23T07:12:17.561Z,1014.2
2017-04-23T07:13:27.861Z,1014.21
2017-04-23T07:14:38.173Z,1014.26
2017-04-23T07:15:48.076Z,1014.21
2017-04-23T07:16:58.048Z,1014.3
2017-04-23T07:18:08.563Z,1014.3
2017-04-23T07:19:18.834Z,1014.29
2017-04-23T07:20:28.501Z,1014.36
2017-04-23T07:21:39.037Z,1014.37
2017-04-23T07:22:49.021Z,1014.34
2017-04-23T07:23:59.324Z,1014.39
2017-04-23T07:25:09.609Z,1014.38
2017-04-23T07:26:19.896Z,1014.38
2017-04-23T07:27:30.452Z,1014.42
2017-04-23T07:28:40.755Z,1014.42
2017-04-23T07:29:51.039Z,1014.39
2017-04-23T07:31:01.337Z,1014.39
2017-04-23T07:32:11.613Z,1014.37
2017-04-23T07:33:22.140Z,1014.4
2017-04-23T07:34:32.118Z,1014.42
2017-04-23T07:35:42.410Z,1014.41
2017-04-23T07:36:52.702Z,1014.48
2017-04-23T07:38:02.669Z,1014.39
2017-04-23T07:39:13.197Z,1014.42
2017-04-23T07:40:23.490Z,1014.5
2017-04-23T07:41:33.451Z,1014.48
2017-04-23T07:42:43.423Z,1014.5
2017-04-23T07:43:53.702Z,1014.47
2017-04-23T07:45:03.919Z,1014.47
2017-04-23T07:46:14.201Z,1014.52
2017-04-23T07:47:24.166Z,1014.48
2017-04-23T07:48:34.446Z,1014.49
2017-04-23T07:49:44.416Z,1014.47
2017-04-23T07:50:54.945Z,1014.51
2017-04-23T07:52:05.219Z,1014.49
2017-04-23T07:53:14.906Z,1014.45
2017-04-23T07:54:24.879Z,1014.52
2017-04-23T07:55:34.874Z,1014.49
2017-04-23T07:56:45.468Z,1014.46
2017-04-23T07:57:55.759Z,1014.48
2017-04-23T07:59:05.747Z,1014.47
2017-04-23T08:00:16.037Z,1014.44
2017-04-23T08:01:26.329Z,1014.47
2017-04-23T08:02:36.868Z,1014.45
2017-04-23T08:03:47.161Z,1014.45
2017-04-23T08:04:57.438Z,1014.51
2017-04-23T08:06:07.715Z,1014.54
2017-04-23T08:07:17.686Z,1014.56
2017-04-23T08:08:28.223Z,1014.58
2017-04-23T08:09:38.209Z,1014.55
2017-04-23T08:10:47.862Z,1014.54
2017-04-23T08:11:58.167Z,1014.57
2017-04-23T08:13:08.454Z,1014.56
2017-04-23T08:14:19.008Z,1014.59
2017-04-23T08:15:29.024Z,1014.54
2017-04-23T08:16:38.682Z,1014.6
2017-04-23T08:17:48.654Z,1014.55
2017-04-23T08:18:58.886Z,1014.52
2017-04-23T08:20:09.131Z,1014.57
2017-04-23T08:21:19.414Z,1014.54
2017-04-23T08:22:29.701Z,1014.53
2017-04-23T08:23:40.007Z,1014.55
2017-04-23T08:24:50.306Z,1014.52
2017-04-23T08:26:00.887Z,1014.56
2017-04-23T08:27:11.176Z,1014.52
2017-04-23T08:28:21.458Z,1014.53
2017-04-23T08:29:31.735Z,1014.55
2017-04-23T08:30:42.018Z,1014.59
2017-04-23T08:31:52.621Z,1014.47
2017-04-23T08:33:02.297Z,1014.5
2017-04-23T08:34:12.280Z,1014.54
2017-04-23T08:35:22.263Z,1014.53
2017-04-23T08:36:32.558Z,1014.48
2017-04-23T08:37:42.787Z,1014.45
2017-04-23T08:38:52.783Z,1014.49
2017-04-23T08:40:03.070Z,1014.47
2017-04-23T08:41:13.071Z,1014.43
2017-04-23T08:42:23.362Z,1014.45
2017-04-23T08:43:33.967Z,1014.44
2017-04-23T08:44:43.969Z,1014.41
2017-04-23T08:45:54.269Z,1014.43
2017-04-23T08:47:04.554Z,1014.4
2017-04-23T08:48:14.542Z,1014.45
2017-04-23T08:49:25.138Z,1014.49
2017-04-23T08:50:34.514Z,1014.44
2017-04-23T08:51:44.184Z,1014.44
2017-04-23T08:52:54.469Z,1014.37
2017-04-23T08:54:04.445Z,1014.39
2017-04-23T08:55:14.717Z,1014.39
2017-04-23T08:56:24.713Z,1014.38
2017-04-23T08:57:34.697Z,1014.4
2017-04-23T08:58:44.706Z,1014.47
2017-04-23T08:59:54.998Z,1014.46
2017-04-23T09:01:05.548Z,1014.45
2017-04-23T09:02:15.526Z,1014.51
2017-04-23T09:03:25.806Z,1014.52
2017-04-23T09:04:35.798Z,1014.56
2017-04-23T09:05:45.793Z,1014.56
2017-04-23T09:06:56.351Z,1014.63
2017-04-23T09:08:06.023Z,1014.73
2017-04-23T09:09:15.389Z,1014.7
2017-04-23T09:10:25.710Z,1014.66
2017-04-23T09:11:36.006Z,1014.67
2017-04-23T09:12:46.572Z,1014.56
2017-04-23T09:13:56.289Z,1014.53
2017-04-23T09:15:06.590Z,1014.49
2017-04-23T09:16:16.900Z,1014.45
2017-04-23T09:17:26.903Z,1014.48
2017-04-23T09:18:37.513Z,1014.46
2017-04-23T09:19:47.816Z,1014.45
2017-04-23T09:20:57.808Z,1014.45
2017-04-23T09:22:07.836Z,1014.41
2017-04-23T09:23:18.188Z,1014.4
2017-04-23T09:24:28.810Z,1014.41
2017-04-23T09:25:38.805Z,1014.43
2017-04-23T09:26:49.176Z,1014.42
2017-04-23T09:27:59.496Z,1014.43
2017-04-23T09:29:09.883Z,1014.37
2017-04-23T09:30:20.444Z,1014.37
2017-04-23T09:31:30.752Z,1014.4
2017-04-23T09:32:41.040Z,1014.38
2017-04-23T09:33:51.048Z,1014.39
2017-04-23T09:35:01.075Z,1014.36
2017-04-23T09:36:11.627Z,1014.37
2017-04-23T09:37:21.948Z,1014.5
2017-04-23T09:38:32.256Z,1014.51
2017-04-23T09:39:42.619Z,1014.61
2017-04-23T09:40:52.640Z,1014.68
2017-04-23T09:42:02.905Z,1014.71
2017-04-23T09:43:13.224Z,1014.73
2017-04-23T09:44:23.243Z,1014.8
2017-04-23T09:45:33.579Z,1014.83
2017-04-23T09:46:43.589Z,1014.89
2017-04-23T09:47:53.506Z,1014.78
2017-04-23T09:49:03.860Z,1014.77
2017-04-23T09:50:13.872Z,1014.81
2017-04-23T09:51:23.859Z,1014.8
2017-04-23T09:52:34.196Z,1014.77
2017-04-23T09:53:44.454Z,1014.76
2017-04-23T09:54:54.162Z,1014.65
2017-04-23T09:56:04.495Z,1014.61
2017-04-23T09:57:14.844Z,1014.58
2017-04-23T09:58:25.180Z,1014.58
2017-04-23T09:59:35.754Z,1014.58
2017-04-23T10:00:45.480Z,1014.56
2017-04-23T10:01:55.811Z,1014.59
2017-04-23T10:03:06.151Z,1014.6
2017-04-23T10:04:16.156Z,1014.55
2017-04-23T10:05:26.754Z,1014.53
2017-04-23T10:06:36.753Z,1014.52
2017-04-23T10:07:47.091Z,1014.46
2017-04-23T10:08:57.392Z,1014.44
2017-04-23T10:10:07.418Z,1014.42
2017-04-23T10:11:18.045Z,1014.36
2017-04-23T10:12:28.395Z,1014.33
2017-04-23T10:13:38.738Z,1014.29
2017-04-23T10:14:49.078Z,1014.29
2017-04-23T10:15:59.425Z,1014.25
2017-04-23T10:17:09.985Z,1014.25
2017-04-23T10:18:20.343Z,1014.26
2017-04-23T10:19:30.354Z,1014.29
2017-04-23T10:20:40.383Z,1014.28
2017-04-23T10:21:50.747Z,1014.27
2017-04-23T10:23:01.360Z,1014.28
2017-04-23T10:24:11.675Z,1014.24
2017-04-23T10:25:21.705Z,1014.25
2017-04-23T10:26:31.727Z,1014.19
2017-04-23T10:27:41.403Z,1014.17
2017-04-23T10:28:52.063Z,1014.1
2017-04-23T10:30:02.370Z,1014.14
2017-04-23T10:31:12.408Z,1014.15
2017-04-23T10:32:22.407Z,1014.15
2017-04-23T10:33:32.756Z,1014.06
2017-04-23T10:34:42.694Z,1014.04
2017-04-23T10:35:53.007Z,1014.05
2017-04-23T10:37:03.343Z,1013.98
2017-04-23T10:38:13.685Z,1013.98
2017-04-23T10:39:24.024Z,1014.02
2017-04-23T10:40:34.598Z,1014.01
2017-04-23T10:41:44.617Z,1013.91
2017-04-23T10:42:54.609Z,1013.92
2017-04-23T10:44:04.945Z,1013.91
2017-04-23T10:45:14.965Z,1013.88
2017-04-23T10:46:25.239Z,1013.86
2017-04-23T10:47:35.234Z,1013.82
2017-04-23T10:48:45.591Z,1013.76
2017-04-23T10:49:55.607Z,1013.73
2017-04-23T10:51:05.591Z,1013.72
2017-04-23T10:52:15.872Z,1013.7
2017-04-23T10:53:26.226Z,1013.68
2017-04-23T10:54:36.322Z,1013.66
2017-04-23T10:55:46.317Z,1013.67
2017-04-23T10:56:56.702Z,1013.73
2017-04-23T10:58:06.971Z,1013.71
2017-04-23T10:59:17.312Z,1013.73
2017-04-23T11:00:27.668Z,1013.72
2017-04-23T11:01:38.004Z,1013.74
2017-04-23T11:02:48.322Z,1013.76
2017-04-23T11:03:58.631Z,1013.59
2017-04-23T11:05:08.362Z,1013.75
2017-04-23T11:06:18.693Z,1013.62
2017-04-23T11:07:28.721Z,1013.69
2017-04-23T11:08:39.029Z,1013.58
2017-04-23T11:09:49.613Z,1013.68
2017-04-23T11:10:59.304Z,1013.63
2017-04-23T11:12:09.659Z,1013.58
2017-04-23T11:13:19.995Z,1013.63
2017-04-23T11:14:30.341Z,1013.58
2017-04-23T11:15:40.943Z,1013.7
2017-04-23T11:16:50.973Z,1013.67
2017-04-23T11:18:01.289Z,1013.79
2017-04-23T11:19:11.299Z,1013.83
2017-04-23T11:20:21.642Z,1013.95
2017-04-23T11:21:32.261Z,1013.86
2017-04-23T11:22:42.594Z,1013.96
2017-04-23T11:23:52.907Z,1013.97
2017-04-23T11:25:02.935Z,1014.03
2017-04-23T11:26:13.270Z,1013.91
2017-04-23T11:27:23.580Z,1013.97
2017-04-23T11:28:33.603Z,1014.01
2017-04-23T11:29:43.929Z,1013.96
2017-04-23T11:30:54.275Z,1014
2017-04-23T11:32:04.612Z,1014.06
2017-04-23T11:33:14.578Z,1013.98
2017-04-23T11:34:24.572Z,1014.05
2017-04-23T11:35:34.926Z,1014.05
2017-04-23T11:36:45.264Z,1014
2017-04-23T11:37:55.581Z,1013.98
2017-04-23T11:39:05.839Z,1013.91
2017-04-23T11:40:16.230Z,1014
2017-04-23T11:41:26.249Z,1014.01
2017-04-23T11:42:36.581Z,1013.98
2017-04-23T11:43:46.973Z,1014.05
2017-04-23T11:44:57.243Z,1014.07
2017-04-23T11:46:07.266Z,1014.01
2017-04-23T11:47:17.000Z,1014.01
2017-04-23T11:48:27.337Z,1014.01
2017-04-23T11:49:37.662Z,1013.95
2017-04-23T11:50:48.314Z,1013.97
2017-04-23T11:51:58.647Z,1014.02
2017-04-23T11:53:08.964Z,1013.96
2017-04-23T11:54:19.310Z,1014.06
2017-04-23T11:55:29.651Z,1014.02
2017-04-23T11:56:40.241Z,1014
2017-04-23T11:57:50.552Z,1014.01
2017-04-23T11:59:00.903Z,1014.05
2017-04-23T12:00:10.922Z,1013.97
2017-04-23T12:01:21.259Z,1014.12
2017-04-23T12:02:31.829Z,1014.07
2017-04-23T12:03:41.904Z,1014.09
2017-04-23T12:04:52.275Z,1014.04
2017-04-23T12:06:02.299Z,1014.02
2017-04-23T12:07:12.340Z,1014.08
2017-04-23T12:08:22.597Z,1014.07
2017-04-23T12:09:32.959Z,1014.04
2017-04-23T12:10:43.285Z,1014.12
2017-04-23T12:11:53.629Z,1014.11
2017-04-23T12:13:03.934Z,1014.02
2017-04-23T12:14:14.522Z,1013.97
2017-04-23T12:15:24.879Z,1013.96
2017-04-23T12:16:35.208Z,1013.97
2017-04-23T12:17:44.896Z,1014.03
2017-04-23T12:18:54.918Z,1013.92
2017-04-23T12:20:05.519Z,1013.94
2017-04-23T12:21:15.869Z,1014
2017-04-23T12:22:26.202Z,1013.93
2017-04-23T12:23:36.546Z,1013.91
2017-04-23T12:24:46.917Z,1013.97
2017-04-23T12:25:57.484Z,1013.9
2017-04-23T12:27:07.835Z,1013.89
2017-04-23T12:28:17.870Z,1013.9
2017-04-23T12:29:28.203Z,1013.78
2017-04-23T12:30:38.553Z,1013.83
2017-04-23T12:31:49.148Z,1013.83
2017-04-23T12:32:59.478Z,1013.84
2017-04-23T12:34:09.841Z,1013.89
2017-04-23T12:35:20.293Z,1013.87
2017-04-23T12:36:30.660Z,1013.85
2017-04-23T12:37:41.023Z,1013.86
2017-04-23T12:38:51.434Z,1013.84
2017-04-23T12:40:01.552Z,1013.88
2017-04-23T12:41:11.712Z,1013.82
2017-04-23T12:42:22.137Z,1013.82
2017-04-23T12:43:32.587Z,1013.8
2017-04-23T12:44:42.636Z,1013.73
2017-04-23T12:45:53.062Z,1013.72
2017-04-23T12:47:03.515Z,1013.77
2017-04-23T12:48:14.040Z,1013.79
2017-04-23T12:49:24.221Z,1013.75
2017-04-23T12:50:34.705Z,1013.8
2017-04-23T12:51:45.219Z,1013.78
2017-04-23T12:52:55.728Z,1013.79
2017-04-23T12:54:05.765Z,1013.8
2017-04-23T12:55:16.843Z,1013.75
2017-04-23T12:56:27.228Z,1013.72
2017-04-23T12:57:37.626Z,1013.73
2017-04-23T12:58:48.036Z,1013.7
2017-04-23T12:59:58.179Z,1013.7
2017-04-23T13:01:08.507Z,1013.67
2017-04-23T13:02:18.952Z,1013.64
2017-04-23T13:03:29.395Z,1013.67
2017-04-23T13:04:39.486Z,1013.65
2017-04-23T13:05:49.936Z,1013.65
2017-04-23T13:07:00.305Z,1013.62
2017-04-23T13:08:10.747Z,1013.64
2017-04-23T13:09:21.227Z,1013.57
2017-04-23T13:10:31.620Z,1013.57
2017-04-23T13:11:42.102Z,1013.57
2017-04-23T13:12:52.118Z,1013.58
2017-04-23T13:14:02.543Z,1013.5
2017-04-23T13:15:13.054Z,1013.52
2017-04-23T13:16:22.831Z,1013.48
2017-04-23T13:17:32.920Z,1013.51
2017-04-23T13:18:43.558Z,1013.45
2017-04-23T13:19:53.689Z,1013.43
2017-04-23T13:21:03.790Z,1013.38
2017-04-23T13:22:13.907Z,1013.39
2017-04-23T13:23:24.040Z,1013.43
2017-04-23T13:24:34.706Z,1013.42
2017-04-23T13:25:45.124Z,1013.43
2017-04-23T13:26:55.608Z,1013.37
2017-04-23T13:28:05.742Z,1013.39
2017-04-23T13:29:15.888Z,1013.39
2017-04-23T13:30:26.421Z,1013.37
2017-04-23T13:31:36.839Z,1013.36
2017-04-23T13:32:46.944Z,1013.38
2017-04-23T13:33:57.536Z,1013.33
2017-04-23T13:35:07.960Z,1013.4
2017-04-23T13:36:18.683Z,1013.36
2017-04-23T13:37:29.115Z,1013.34
2017-04-23T13:38:39.544Z,1013.34
2017-04-23T13:39:49.645Z,1013.35
2017-04-23T13:40:59.493Z,1013.39
2017-04-23T13:42:10.144Z,1013.36
2017-04-23T13:43:20.890Z,1013.33
2017-04-23T13:44:31.569Z,1013.3
2017-04-23T13:45:41.651Z,1013.32
2017-04-23T13:46:51.805Z,1013.34
2017-04-23T13:48:02.278Z,1013.36
2017-04-23T13:49:12.054Z,1013.31
2017-04-23T13:50:22.445Z,1013.39
2017-04-23T13:51:32.878Z,1013.39
2017-04-23T13:52:43.075Z,1013.38
2017-04-23T13:53:53.563Z,1013.42
2017-04-23T13:55:03.635Z,1013.4
2017-04-23T13:56:13.841Z,1013.44
2017-04-23T13:57:23.970Z,1013.47
2017-04-23T13:58:34.519Z,1013.56
2017-04-23T13:59:44.895Z,1013.67
2017-04-23T14:00:55.008Z,1013.78
2017-04-23T14:02:05.472Z,1013.92
2017-04-23T14:03:16.087Z,1013.87
2017-04-23T14:04:26.577Z,1013.81
2017-04-23T14:05:37.276Z,1013.86
2017-04-23T14:06:47.803Z,1013.81
2017-04-23T14:07:58.281Z,1013.8
2017-04-23T14:09:08.475Z,1013.85
2017-04-23T14:10:19.169Z,1013.84
2017-04-23T14:11:30.158Z,1013.89
2017-04-23T14:12:40.883Z,1013.91